Woodbine, Pennsylvania
Current Conditions -  °F | °C
As of 6:53 AM on Sunday 21 Dec 2014 (Local Time) from KLNS Reporting Station
Broken Clouds Broken Clouds  
Wind Chill: 21°   Ceiling: 10000
Heat Index: 26°   Visibility: 7mi
Dew Point: 22°   Wind: 5mph
Humidity: 84%   Direction: 290°WNW
Pressure: 30.31"   Gusts: NA
Location:  39.8258°N, 76.3995°W
Report Text: KLNS 211153Z 29004KT 7SM BKN100 M03/M06 A3031 RMK AO2 SLP267 T10331056 11017 21033 53006
Loading
Personal Weather Stations






























Interactive Weather Map New forecast layout! Learn more

10-Day Weather Forecast

Advertisements
Track Severe Weather on mobile